sensor_id;sensor_type;location;lat;lon;timestamp;P1;durP1;ratioP1;P2;durP2;ratioP2
32864;SDS011;19219;44.500;11.188;2024-01-16T00:00:16;91.40;;;46.50;;
32864;SDS011;19219;44.500;11.188;2024-01-16T00:02:42;104.78;;;49.42;;
32864;SDS011;19219;44.500;11.188;2024-01-16T00:05:08;97.00;;;47.38;;
32864;SDS011;19219;44.500;11.188;2024-01-16T00:07:36;90.40;;;44.05;;
32864;SDS011;19219;44.500;11.188;2024-01-16T00:10:04;98.68;;;46.35;;
32864;SDS011;19219;44.500;11.188;2024-01-16T00:12:32;92.97;;;45.40;;
32864;SDS011;19219;44.500;11.188;2024-01-16T00:14:57;102.18;;;47.50;;
32864;SDS011;19219;44.500;11.188;2024-01-16T00:17:23;90.65;;;44.38;;
32864;SDS011;19219;44.500;11.188;2024-01-16T00:19:48;98.50;;;45.85;;
32864;SDS011;19219;44.500;11.188;2024-01-16T00:22:14;91.15;;;45.10;;
32864;SDS011;19219;44.500;11.188;2024-01-16T00:24:40;96.30;;;45.33;;
32864;SDS011;19219;44.500;11.188;2024-01-16T00:27:05;96.70;;;47.25;;
32864;SDS011;19219;44.500;11.188;2024-01-16T00:29:31;101.72;;;46.40;;
32864;SDS011;19219;44.500;11.188;2024-01-16T00:31:57;96.65;;;45.00;;
32864;SDS011;19219;44.500;11.188;2024-01-16T00:34:22;90.15;;;44.60;;
32864;SDS011;19219;44.500;11.188;2024-01-16T00:36:48;97.90;;;47.58;;
32864;SDS011;19219;44.500;11.188;2024-01-16T00:39:14;103.70;;;47.95;;
32864;SDS011;19219;44.500;11.188;2024-01-16T00:41:39;108.35;;;48.90;;
32864;SDS011;19219;44.500;11.188;2024-01-16T00:44:05;92.85;;;46.88;;
32864;SDS011;19219;44.500;11.188;2024-01-16T00:46:31;93.38;;;48.05;;
32864;SDS011;19219;44.500;11.188;2024-01-16T00:48:56;100.45;;;47.63;;
32864;SDS011;19219;44.500;11.188;2024-01-16T00:51:22;103.00;;;47.08;;
32864;SDS011;19219;44.500;11.188;2024-01-16T00:53:47;102.18;;;45.92;;
32864;SDS011;19219;44.500;11.188;2024-01-16T00:56:13;93.55;;;47.10;;
32864;SDS011;19219;44.500;11.188;2024-01-16T00:58:39;96.78;;;47.83;;
32864;SDS011;19219;44.500;11.188;2024-01-16T01:01:04;103.72;;;49.00;;
32864;SDS011;19219;44.500;11.188;2024-01-16T01:03:30;106.93;;;50.53;;
32864;SDS011;19219;44.500;11.188;2024-01-16T01:05:56;97.38;;;45.97;;
32864;SDS011;19219;44.500;11.188;2024-01-16T01:08:22;95.72;;;47.70;;
32864;SDS011;19219;44.500;11.188;2024-01-16T01:10:47;96.13;;;49.05;;
32864;SDS011;19219;44.500;11.188;2024-01-16T01:13:13;90.00;;;46.17;;
32864;SDS011;19219;44.500;11.188;2024-01-16T01:15:39;100.25;;;47.42;;
32864;SDS011;19219;44.500;11.188;2024-01-16T01:18:04;99.07;;;49.70;;
32864;SDS011;19219;44.500;11.188;2024-01-16T01:20:31;96.38;;;45.67;;
32864;SDS011;19219;44.500;11.188;2024-01-16T01:22:57;116.15;;;51.13;;
32864;SDS011;19219;44.500;11.188;2024-01-16T01:25:23;106.45;;;50.90;;
32864;SDS011;19219;44.500;11.188;2024-01-16T01:27:51;110.47;;;52.58;;
32864;SDS011;19219;44.500;11.188;2024-01-16T01:30:17;108.47;;;52.38;;
32864;SDS011;19219;44.500;11.188;2024-01-16T01:32:43;123.88;;;52.78;;
32864;SDS011;19219;44.500;11.188;2024-01-16T01:35:09;100.20;;;48.65;;
32864;SDS011;19219;44.500;11.188;2024-01-16T01:37:36;106.53;;;51.03;;
32864;SDS011;19219;44.500;11.188;2024-01-16T01:40:02;107.40;;;50.33;;
32864;SDS011;19219;44.500;11.188;2024-01-16T01:42:28;113.15;;;52.72;;
32864;SDS011;19219;44.500;11.188;2024-01-16T01:44:54;95.18;;;47.83;;
32864;SDS011;19219;44.500;11.188;2024-01-16T01:47:20;99.95;;;50.65;;
32864;SDS011;19219;44.500;11.188;2024-01-16T01:49:46;110.25;;;54.10;;
32864;SDS011;19219;44.500;11.188;2024-01-16T01:52:11;105.53;;;51.28;;
32864;SDS011;19219;44.500;11.188;2024-01-16T01:54:37;122.28;;;53.42;;
32864;SDS011;19219;44.500;11.188;2024-01-16T01:57:04;97.47;;;50.53;;
32864;SDS011;19219;44.500;11.188;2024-01-16T01:59:32;108.00;;;50.22;;
32864;SDS011;19219;44.500;11.188;2024-01-16T02:01:58;103.20;;;49.50;;
32864;SDS011;19219;44.500;11.188;2024-01-16T02:04:24;100.13;;;48.00;;
32864;SDS011;19219;44.500;11.188;2024-01-16T02:06:51;100.57;;;47.05;;
32864;SDS011;19219;44.500;11.188;2024-01-16T02:09:17;97.93;;;48.80;;
32864;SDS011;19219;44.500;11.188;2024-01-16T02:11:42;102.20;;;47.83;;
32864;SDS011;19219;44.500;11.188;2024-01-16T02:14:08;105.70;;;48.97;;
32864;SDS011;19219;44.500;11.188;2024-01-16T02:16:38;94.93;;;47.80;;
32864;SDS011;19219;44.500;11.188;2024-01-16T02:19:09;119.10;;;52.63;;
32864;SDS011;19219;44.500;11.188;2024-01-16T02:21:41;110.90;;;50.75;;
32864;SDS011;19219;44.500;11.188;2024-01-16T02:24:12;121.88;;;58.20;;
32864;SDS011;19219;44.500;11.188;2024-01-16T02:26:38;140.65;;;63.20;;
32864;SDS011;19219;44.500;11.188;2024-01-16T02:29:04;108.13;;;51.47;;
32864;SDS011;19219;44.500;11.188;2024-01-16T02:31:31;101.35;;;48.58;;
32864;SDS011;19219;44.500;11.188;2024-01-16T02:33:57;115.55;;;52.10;;
32864;SDS011;19219;44.500;11.188;2024-01-16T02:36:23;95.80;;;46.35;;
32864;SDS011;19219;44.500;11.188;2024-01-16T02:38:49;101.75;;;48.95;;
32864;SDS011;19219;44.500;11.188;2024-01-16T02:41:15;106.13;;;48.75;;
32864;SDS011;19219;44.500;11.188;2024-01-16T02:43:42;105.90;;;48.53;;
32864;SDS011;19219;44.500;11.188;2024-01-16T02:46:08;98.60;;;48.03;;
32864;SDS011;19219;44.500;11.188;2024-01-16T02:48:34;99.18;;;48.47;;
32864;SDS011;19219;44.500;11.188;2024-01-16T02:51:00;98.13;;;46.53;;
32864;SDS011;19219;44.500;11.188;2024-01-16T02:53:26;105.07;;;49.20;;
32864;SDS011;19219;44.500;11.188;2024-01-16T02:55:53;111.72;;;48.35;;
32864;SDS011;19219;44.500;11.188;2024-01-16T02:58:20;103.35;;;47.22;;
32864;SDS011;19219;44.500;11.188;2024-01-16T03:00:46;99.13;;;47.42;;
32864;SDS011;19219;44.500;11.188;2024-01-16T03:03:12;98.75;;;47.63;;
32864;SDS011;19219;44.500;11.188;2024-01-16T03:05:39;112.55;;;49.47;;
32864;SDS011;19219;44.500;11.188;2024-01-16T03:08:05;97.82;;;46.65;;
32864;SDS011;19219;44.500;11.188;2024-01-16T03:10:31;94.43;;;45.63;;
32864;SDS011;19219;44.500;11.188;2024-01-16T03:12:57;90.70;;;41.03;;
32864;SDS011;19219;44.500;11.188;2024-01-16T03:15:23;91.10;;;42.92;;
32864;SDS011;19219;44.500;11.188;2024-01-16T03:17:48;93.90;;;46.08;;
32864;SDS011;19219;44.500;11.188;2024-01-16T03:20:14;91.97;;;44.95;;
32864;SDS011;19219;44.500;11.188;2024-01-16T03:22:41;99.75;;;45.28;;
32864;SDS011;19219;44.500;11.188;2024-01-16T03:25:08;83.55;;;41.80;;
32864;SDS011;19219;44.500;11.188;2024-01-16T03:27:34;88.75;;;41.80;;
32864;SDS011;19219;44.500;11.188;2024-01-16T03:30:00;81.78;;;39.33;;
32864;SDS011;19219;44.500;11.188;2024-01-16T03:32:26;89.78;;;42.25;;
32864;SDS011;19219;44.500;11.188;2024-01-16T03:34:52;90.85;;;44.42;;
32864;SDS011;19219;44.500;11.188;2024-01-16T03:37:18;92.65;;;45.50;;
32864;SDS011;19219;44.500;11.188;2024-01-16T03:39:44;95.63;;;44.13;;
32864;SDS011;19219;44.500;11.188;2024-01-16T03:42:10;90.95;;;45.58;;
32864;SDS011;19219;44.500;11.188;2024-01-16T03:44:41;90.95;;;47.70;;
32864;SDS011;19219;44.500;11.188;2024-01-16T03:47:07;92.05;;;45.97;;
32864;SDS011;19219;44.500;11.188;2024-01-16T03:49:33;89.40;;;44.40;;
32864;SDS011;19219;44.500;11.188;2024-01-16T03:51:59;97.75;;;47.08;;
32864;SDS011;19219;44.500;11.188;2024-01-16T03:54:25;94.85;;;46.58;;
32864;SDS011;19219;44.500;11.188;2024-01-16T03:56:51;101.45;;;47.53;;
32864;SDS011;19219;44.500;11.188;2024-01-16T03:59:16;101.25;;;48.65;;
32864;SDS011;19219;44.500;11.188;2024-01-16T04:01:42;94.20;;;46.53;;
32864;SDS011;19219;44.500;11.188;2024-01-16T04:04:09;95.55;;;45.00;;
32864;SDS011;19219;44.500;11.188;2024-01-16T04:06:35;95.90;;;46.10;;
32864;SDS011;19219;44.500;11.188;2024-01-16T04:09:01;83.88;;;42.30;;
32864;SDS011;19219;44.500;11.188;2024-01-16T04:11:28;90.70;;;43.08;;
32864;SDS011;19219;44.500;11.188;2024-01-16T04:13:54;80.75;;;42.42;;
32864;SDS011;19219;44.500;11.188;2024-01-16T04:16:20;84.28;;;41.58;;
32864;SDS011;19219;44.500;11.188;2024-01-16T04:18:45;84.55;;;41.20;;
32864;SDS011;19219;44.500;11.188;2024-01-16T04:21:11;80.30;;;41.67;;
32864;SDS011;19219;44.500;11.188;2024-01-16T04:23:37;84.93;;;41.35;;
32864;SDS011;19219;44.500;11.188;2024-01-16T04:26:02;99.35;;;43.13;;
32864;SDS011;19219;44.500;11.188;2024-01-16T04:28:28;94.95;;;43.33;;
32864;SDS011;19219;44.500;11.188;2024-01-16T04:30:54;88.63;;;43.03;;
32864;SDS011;19219;44.500;11.188;2024-01-16T04:33:20;89.82;;;41.55;;
32864;SDS011;19219;44.500;11.188;2024-01-16T04:35:46;84.00;;;42.53;;
32864;SDS011;19219;44.500;11.188;2024-01-16T04:38:12;84.82;;;41.00;;
32864;SDS011;19219;44.500;11.188;2024-01-16T04:40:37;90.95;;;42.08;;
32864;SDS011;19219;44.500;11.188;2024-01-16T04:43:03;89.18;;;45.13;;
32864;SDS011;19219;44.500;11.188;2024-01-16T04:45:29;95.55;;;47.22;;
32864;SDS011;19219;44.500;11.188;2024-01-16T04:47:54;92.25;;;44.83;;
32864;SDS011;19219;44.500;11.188;2024-01-16T04:50:20;91.82;;;42.70;;
32864;SDS011;19219;44.500;11.188;2024-01-16T04:52:46;89.97;;;41.53;;
32864;SDS011;19219;44.500;11.188;2024-01-16T04:55:11;90.63;;;43.95;;
32864;SDS011;19219;44.500;11.188;2024-01-16T04:57:37;96.97;;;44.50;;
32864;SDS011;19219;44.500;11.188;2024-01-16T05:00:03;96.18;;;43.65;;
32864;SDS011;19219;44.500;11.188;2024-01-16T05:02:32;95.70;;;43.58;;
32864;SDS011;19219;44.500;11.188;2024-01-16T05:04:58;96.88;;;44.83;;
32864;SDS011;19219;44.500;11.188;2024-01-16T05:07:24;102.60;;;46.30;;
32864;SDS011;19219;44.500;11.188;2024-01-16T05:09:51;102.32;;;44.67;;
32864;SDS011;19219;44.500;11.188;2024-01-16T05:12:17;101.60;;;47.03;;
32864;SDS011;19219;44.500;11.188;2024-01-16T05:14:43;102.55;;;45.85;;
32864;SDS011;19219;44.500;11.188;2024-01-16T05:17:08;106.18;;;47.20;;
32864;SDS011;19219;44.500;11.188;2024-01-16T05:19:34;97.13;;;45.15;;
32864;SDS011;19219;44.500;11.188;2024-01-16T05:22:00;100.93;;;47.33;;
32864;SDS011;19219;44.500;11.188;2024-01-16T05:24:25;93.10;;;44.13;;
32864;SDS011;19219;44.500;11.188;2024-01-16T05:26:51;101.40;;;48.03;;
32864;SDS011;19219;44.500;11.188;2024-01-16T05:29:18;96.88;;;45.60;;
32864;SDS011;19219;44.500;11.188;2024-01-16T05:31:43;106.78;;;48.35;;
32864;SDS011;19219;44.500;11.188;2024-01-16T05:34:09;107.90;;;50.28;;
32864;SDS011;19219;44.500;11.188;2024-01-16T05:36:36;105.43;;;49.85;;
32864;SDS011;19219;44.500;11.188;2024-01-16T05:39:02;113.30;;;52.05;;
32864;SDS011;19219;44.500;11.188;2024-01-16T05:41:31;117.15;;;52.25;;
32864;SDS011;19219;44.500;11.188;2024-01-16T05:43:58;122.32;;;56.50;;
32864;SDS011;19219;44.500;11.188;2024-01-16T05:46:24;106.18;;;52.75;;
32864;SDS011;19219;44.500;11.188;2024-01-16T05:48:50;120.63;;;56.47;;
32864;SDS011;19219;44.500;11.188;2024-01-16T05:51:16;119.03;;;57.22;;
32864;SDS011;19219;44.500;11.188;2024-01-16T05:53:41;130.75;;;56.35;;
32864;SDS011;19219;44.500;11.188;2024-01-16T05:56:07;117.68;;;57.00;;
32864;SDS011;19219;44.500;11.188;2024-01-16T05:58:33;128.52;;;54.58;;
32864;SDS011;19219;44.500;11.188;2024-01-16T06:01:04;114.53;;;55.33;;
32864;SDS011;19219;44.500;11.188;2024-01-16T06:03:30;116.60;;;55.05;;
32864;SDS011;19219;44.500;11.188;2024-01-16T06:05:55;118.35;;;54.17;;
32864;SDS011;19219;44.500;11.188;2024-01-16T06:08:21;103.38;;;49.38;;
32864;SDS011;19219;44.500;11.188;2024-01-16T06:10:47;112.40;;;48.13;;
32864;SDS011;19219;44.500;11.188;2024-01-16T06:13:12;92.70;;;45.28;;
32864;SDS011;19219;44.500;11.188;2024-01-16T06:15:38;100.30;;;48.85;;
32864;SDS011;19219;44.500;11.188;2024-01-16T06:18:04;93.72;;;48.03;;
32864;SDS011;19219;44.500;11.188;2024-01-16T06:20:29;104.60;;;49.03;;
32864;SDS011;19219;44.500;11.188;2024-01-16T06:22:56;99.60;;;46.60;;
32864;SDS011;19219;44.500;11.188;2024-01-16T06:25:21;93.75;;;45.75;;
32864;SDS011;19219;44.500;11.188;2024-01-16T06:27:47;106.40;;;49.65;;
32864;SDS011;19219;44.500;11.188;2024-01-16T06:30:13;93.38;;;45.70;;
32864;SDS011;19219;44.500;11.188;2024-01-16T06:32:39;96.63;;;47.53;;
32864;SDS011;19219;44.500;11.188;2024-01-16T06:35:04;99.70;;;46.78;;
32864;SDS011;19219;44.500;11.188;2024-01-16T06:37:30;94.85;;;44.78;;
32864;SDS011;19219;44.500;11.188;2024-01-16T06:39:56;267.05;;;108.85;;
32864;SDS011;19219;44.500;11.188;2024-01-16T06:42:22;96.25;;;46.05;;
32864;SDS011;19219;44.500;11.188;2024-01-16T06:44:47;108.13;;;53.45;;
32864;SDS011;19219;44.500;11.188;2024-01-16T06:47:13;119.90;;;57.22;;
32864;SDS011;19219;44.500;11.188;2024-01-16T06:49:39;95.40;;;48.15;;
32864;SDS011;19219;44.500;11.188;2024-01-16T06:52:06;100.78;;;46.15;;
32864;SDS011;19219;44.500;11.188;2024-01-16T06:54:33;93.13;;;43.80;;
32864;SDS011;19219;44.500;11.188;2024-01-16T06:56:58;92.05;;;44.00;;
32864;SDS011;19219;44.500;11.188;2024-01-16T06:59:24;111.88;;;49.08;;
32864;SDS011;19219;44.500;11.188;2024-01-16T07:01:50;135.18;;;62.42;;
32864;SDS011;19219;44.500;11.188;2024-01-16T07:04:16;127.45;;;55.63;;
32864;SDS011;19219;44.500;11.188;2024-01-16T07:06:42;108.28;;;50.47;;
32864;SDS011;19219;44.500;11.188;2024-01-16T07:09:08;110.05;;;50.38;;
32864;SDS011;19219;44.500;11.188;2024-01-16T07:11:36;115.60;;;48.40;;
32864;SDS011;19219;44.500;11.188;2024-01-16T07:14:03;109.45;;;46.47;;
32864;SDS011;19219;44.500;11.188;2024-01-16T07:16:28;103.80;;;46.83;;
32864;SDS011;19219;44.500;11.188;2024-01-16T07:18:54;95.55;;;43.80;;
32864;SDS011;19219;44.500;11.188;2024-01-16T07:21:20;104.40;;;48.38;;
32864;SDS011;19219;44.500;11.188;2024-01-16T07:23:46;98.10;;;47.10;;
32864;SDS011;19219;44.500;11.188;2024-01-16T07:26:12;91.45;;;45.58;;
32864;SDS011;19219;44.500;11.188;2024-01-16T07:28:38;96.30;;;44.20;;
32864;SDS011;19219;44.500;11.188;2024-01-16T07:31:04;102.40;;;47.15;;
32864;SDS011;19219;44.500;11.188;2024-01-16T07:33:30;98.35;;;46.60;;
32864;SDS011;19219;44.500;11.188;2024-01-16T07:35:57;105.45;;;47.22;;
32864;SDS011;19219;44.500;11.188;2024-01-16T07:38:23;94.13;;;45.60;;
32864;SDS011;19219;44.500;11.188;2024-01-16T07:40:48;103.40;;;47.28;;
32864;SDS011;19219;44.500;11.188;2024-01-16T07:43:14;101.47;;;49.30;;
32864;SDS011;19219;44.500;11.188;2024-01-16T07:45:40;103.07;;;46.08;;
32864;SDS011;19219;44.500;11.188;2024-01-16T07:48:05;100.60;;;47.45;;
32864;SDS011;19219;44.500;11.188;2024-01-16T07:50:31;94.82;;;47.03;;
32864;SDS011;19219;44.500;11.188;2024-01-16T07:52:57;93.60;;;47.80;;
32864;SDS011;19219;44.500;11.188;2024-01-16T07:55:22;98.05;;;49.03;;
32864;SDS011;19219;44.500;11.188;2024-01-16T07:57:48;97.97;;;47.45;;
32864;SDS011;19219;44.500;11.188;2024-01-16T08:00:14;107.55;;;50.05;;
32864;SDS011;19219;44.500;11.188;2024-01-16T08:02:40;112.68;;;56.45;;
32864;SDS011;19219;44.500;11.188;2024-01-16T08:05:06;108.20;;;49.58;;
32864;SDS011;19219;44.500;11.188;2024-01-16T08:07:32;88.25;;;47.78;;
32864;SDS011;19219;44.500;11.188;2024-01-16T08:09:59;97.70;;;48.28;;
32864;SDS011;19219;44.500;11.188;2024-01-16T08:12:25;103.97;;;50.40;;
32864;SDS011;19219;44.500;11.188;2024-01-16T08:14:51;101.95;;;49.92;;
32864;SDS011;19219;44.500;11.188;2024-01-16T08:17:17;97.18;;;52.90;;
32864;SDS011;19219;44.500;11.188;2024-01-16T08:19:43;95.20;;;48.58;;
32864;SDS011;19219;44.500;11.188;2024-01-16T08:22:08;86.07;;;43.15;;
32864;SDS011;19219;44.500;11.188;2024-01-16T08:24:34;92.93;;;46.85;;
32864;SDS011;19219;44.500;11.188;2024-01-16T08:26:59;96.82;;;45.95;;
32864;SDS011;19219;44.500;11.188;2024-01-16T08:29:25;98.55;;;46.90;;
32864;SDS011;19219;44.500;11.188;2024-01-16T08:31:51;80.15;;;41.95;;
32864;SDS011;19219;44.500;11.188;2024-01-16T08:34:17;76.20;;;43.35;;
32864;SDS011;19219;44.500;11.188;2024-01-16T08:36:43;79.95;;;42.60;;
32864;SDS011;19219;44.500;11.188;2024-01-16T08:39:09;81.38;;;39.22;;
32864;SDS011;19219;44.500;11.188;2024-01-16T08:41:35;77.25;;;41.80;;
32864;SDS011;19219;44.500;11.188;2024-01-16T08:44:01;65.13;;;35.53;;
32864;SDS011;19219;44.500;11.188;2024-01-16T08:46:27;68.80;;;36.25;;
32864;SDS011;19219;44.500;11.188;2024-01-16T08:48:53;69.50;;;38.53;;
32864;SDS011;19219;44.500;11.188;2024-01-16T08:51:19;69.53;;;38.20;;
32864;SDS011;19219;44.500;11.188;2024-01-16T08:53:44;70.13;;;38.08;;
32864;SDS011;19219;44.500;11.188;2024-01-16T08:56:11;68.43;;;37.90;;
32864;SDS011;19219;44.500;11.188;2024-01-16T08:58:37;71.03;;;38.60;;
32864;SDS011;19219;44.500;11.188;2024-01-16T09:01:06;75.57;;;40.75;;
32864;SDS011;19219;44.500;11.188;2024-01-16T09:03:35;80.78;;;43.72;;
32864;SDS011;19219;44.500;11.188;2024-01-16T09:06:01;78.75;;;43.40;;
32864;SDS011;19219;44.500;11.188;2024-01-16T09:08:28;82.53;;;45.65;;
32864;SDS011;19219;44.500;11.188;2024-01-16T09:10:54;85.85;;;45.38;;
32864;SDS011;19219;44.500;11.188;2024-01-16T09:13:20;85.78;;;46.22;;
32864;SDS011;19219;44.500;11.188;2024-01-16T09:15:48;76.93;;;45.45;;
32864;SDS011;19219;44.500;11.188;2024-01-16T09:18:15;91.60;;;46.53;;
32864;SDS011;19219;44.500;11.188;2024-01-16T09:20:41;76.47;;;43.47;;
32864;SDS011;19219;44.500;11.188;2024-01-16T09:23:08;80.53;;;44.60;;
32864;SDS011;19219;44.500;11.188;2024-01-16T09:25:36;79.30;;;44.97;;
32864;SDS011;19219;44.500;11.188;2024-01-16T09:28:02;79.03;;;45.42;;
32864;SDS011;19219;44.500;11.188;2024-01-16T09:30:28;85.90;;;46.08;;
32864;SDS011;19219;44.500;11.188;2024-01-16T09:32:53;81.43;;;46.03;;
32864;SDS011;19219;44.500;11.188;2024-01-16T09:35:19;78.80;;;45.65;;
32864;SDS011;19219;44.500;11.188;2024-01-16T09:37:45;83.88;;;47.90;;
32864;SDS011;19219;44.500;11.188;2024-01-16T09:40:11;85.85;;;47.45;;
32864;SDS011;19219;44.500;11.188;2024-01-16T09:42:38;89.40;;;46.78;;
32864;SDS011;19219;44.500;11.188;2024-01-16T09:45:05;83.68;;;43.92;;
32864;SDS011;19219;44.500;11.188;2024-01-16T09:47:33;85.38;;;45.55;;
32864;SDS011;19219;44.500;11.188;2024-01-16T09:49:59;91.90;;;51.28;;
32864;SDS011;19219;44.500;11.188;2024-01-16T09:52:28;88.53;;;48.22;;
32864;SDS011;19219;44.500;11.188;2024-01-16T09:54:54;88.07;;;48.85;;
32864;SDS011;19219;44.500;11.188;2024-01-16T09:57:19;83.07;;;45.70;;
32864;SDS011;19219;44.500;11.188;2024-01-16T09:59:54;87.80;;;47.63;;
32864;SDS011;19219;44.500;11.188;2024-01-16T10:04:47;89.30;;;46.58;;
32864;SDS011;19219;44.500;11.188;2024-01-16T10:07:14;96.68;;;50.17;;
32864;SDS011;19219;44.500;11.188;2024-01-16T10:09:40;89.45;;;46.42;;
32864;SDS011;19219;44.500;11.188;2024-01-16T10:12:06;84.25;;;45.25;;
32864;SDS011;19219;44.500;11.188;2024-01-16T10:14:35;88.60;;;49.92;;
32864;SDS011;19219;44.500;11.188;2024-01-16T10:17:02;91.25;;;45.80;;
32864;SDS011;19219;44.500;11.188;2024-01-16T10:20:00;83.15;;;45.22;;
32864;SDS011;19219;44.500;11.188;2024-01-16T10:22:29;87.90;;;46.60;;
32864;SDS011;19219;44.500;11.188;2024-01-16T10:25:07;87.75;;;47.38;;
32864;SDS011;19219;44.500;11.188;2024-01-16T10:27:35;94.07;;;49.42;;
32864;SDS011;19219;44.500;11.188;2024-01-16T10:30:01;95.07;;;48.53;;
32864;SDS011;19219;44.500;11.188;2024-01-16T10:32:29;97.03;;;49.03;;
32864;SDS011;19219;44.500;11.188;2024-01-16T10:35:05;91.75;;;48.38;;
32864;SDS011;19219;44.500;11.188;2024-01-16T10:37:41;95.85;;;50.58;;
32864;SDS011;19219;44.500;11.188;2024-01-16T10:42:34;96.65;;;48.83;;
32864;SDS011;19219;44.500;11.188;2024-01-16T10:45:00;106.18;;;57.13;;
32864;SDS011;19219;44.500;11.188;2024-01-16T10:47:26;113.03;;;58.67;;
32864;SDS011;19219;44.500;11.188;2024-01-16T10:49:52;111.57;;;54.88;;
32864;SDS011;19219;44.500;11.188;2024-01-16T10:52:19;106.30;;;53.95;;
32864;SDS011;19219;44.500;11.188;2024-01-16T10:54:50;111.28;;;57.58;;
32864;SDS011;19219;44.500;11.188;2024-01-16T10:57:17;108.25;;;58.25;;
32864;SDS011;19219;44.500;11.188;2024-01-16T11:02:28;119.82;;;60.10;;
32864;SDS011;19219;44.500;11.188;2024-01-16T11:05:02;131.70;;;61.55;;
32864;SDS011;19219;44.500;11.188;2024-01-16T11:07:31;124.60;;;63.22;;
32864;SDS011;19219;44.500;11.188;2024-01-16T11:09:59;123.78;;;64.80;;
32864;SDS011;19219;44.500;11.188;2024-01-16T11:12:27;118.43;;;61.20;;
32864;SDS011;19219;44.500;11.188;2024-01-16T11:14:55;123.35;;;62.40;;
32864;SDS011;19219;44.500;11.188;2024-01-16T11:19:53;126.97;;;67.40;;
32864;SDS011;19219;44.500;11.188;2024-01-16T11:22:19;128.35;;;66.35;;
32864;SDS011;19219;44.500;11.188;2024-01-16T11:24:45;122.35;;;68.35;;
32864;SDS011;19219;44.500;11.188;2024-01-16T11:27:31;125.20;;;68.72;;
32864;SDS011;19219;44.500;11.188;2024-01-16T11:29:56;122.30;;;67.10;;
32864;SDS011;19219;44.500;11.188;2024-01-16T11:32:35;120.82;;;68.35;;
32864;SDS011;19219;44.500;11.188;2024-01-16T11:35:06;117.85;;;66.35;;
32864;SDS011;19219;44.500;11.188;2024-01-16T11:37:32;127.20;;;71.25;;
32864;SDS011;19219;44.500;11.188;2024-01-16T11:42:45;120.15;;;63.72;;
32864;SDS011;19219;44.500;11.188;2024-01-16T11:48:29;122.22;;;63.30;;
32864;SDS011;19219;44.500;11.188;2024-01-16T11:50:48;121.22;;;65.45;;
32864;SDS011;19219;44.500;11.188;2024-01-16T12:01:29;129.25;;;67.00;;
32864;SDS011;19219;44.500;11.188;2024-01-16T12:06:33;125.82;;;66.97;;
32864;SDS011;19219;44.500;11.188;2024-01-16T12:11:39;118.55;;;66.50;;
32864;SDS011;19219;44.500;11.188;2024-01-16T12:14:08;132.57;;;70.07;;
32864;SDS011;19219;44.500;11.188;2024-01-16T12:16:34;129.65;;;68.10;;
32864;SDS011;19219;44.500;11.188;2024-01-16T12:19:09;122.40;;;66.85;;
32864;SDS011;19219;44.500;11.188;2024-01-16T12:21:38;120.10;;;65.88;;
32864;SDS011;19219;44.500;11.188;2024-01-16T12:24:05;126.50;;;65.32;;
32864;SDS011;19219;44.500;11.188;2024-01-16T12:26:31;124.53;;;64.90;;
32864;SDS011;19219;44.500;11.188;2024-01-16T12:28:57;122.10;;;64.03;;
32864;SDS011;19219;44.500;11.188;2024-01-16T12:31:23;121.78;;;64.45;;
32864;SDS011;19219;44.500;11.188;2024-01-16T12:33:50;116.18;;;62.60;;
32864;SDS011;19219;44.500;11.188;2024-01-16T12:36:16;118.35;;;65.70;;
32864;SDS011;19219;44.500;11.188;2024-01-16T12:38:42;115.55;;;61.38;;
32864;SDS011;19219;44.500;11.188;2024-01-16T12:41:08;109.15;;;60.65;;
32864;SDS011;19219;44.500;11.188;2024-01-16T12:43:36;115.85;;;61.55;;
32864;SDS011;19219;44.500;11.188;2024-01-16T12:46:02;108.10;;;58.13;;
32864;SDS011;19219;44.500;11.188;2024-01-16T12:48:28;107.22;;;58.85;;
32864;SDS011;19219;44.500;11.188;2024-01-16T12:51:03;101.95;;;58.80;;
32864;SDS011;19219;44.500;11.188;2024-01-16T12:53:32;104.70;;;58.33;;
32864;SDS011;19219;44.500;11.188;2024-01-16T12:55:59;105.10;;;55.85;;
32864;SDS011;19219;44.500;11.188;2024-01-16T12:58:31;106.50;;;58.30;;
32864;SDS011;19219;44.500;11.188;2024-01-16T13:01:03;105.07;;;57.60;;
32864;SDS011;19219;44.500;11.188;2024-01-16T13:03:51;103.68;;;56.70;;
32864;SDS011;19219;44.500;11.188;2024-01-16T13:06:17;101.30;;;56.28;;
32864;SDS011;19219;44.500;11.188;2024-01-16T13:08:46;98.85;;;56.10;;
32864;SDS011;19219;44.500;11.188;2024-01-16T13:11:12;109.82;;;57.17;;
32864;SDS011;19219;44.500;11.188;2024-01-16T13:13:41;101.35;;;55.55;;
32864;SDS011;19219;44.500;11.188;2024-01-16T13:16:07;109.63;;;58.05;;
32864;SDS011;19219;44.500;11.188;2024-01-16T13:18:33;103.72;;;55.55;;
32864;SDS011;19219;44.500;11.188;2024-01-16T13:20:59;99.15;;;56.97;;
32864;SDS011;19219;44.500;11.188;2024-01-16T13:23:26;96.28;;;52.13;;
32864;SDS011;19219;44.500;11.188;2024-01-16T13:25:53;100.03;;;54.15;;
32864;SDS011;19219;44.500;11.188;2024-01-16T13:28:24;102.05;;;54.40;;
32864;SDS011;19219;44.500;11.188;2024-01-16T13:30:50;103.63;;;53.50;;
32864;SDS011;19219;44.500;11.188;2024-01-16T13:33:15;110.05;;;56.83;;
32864;SDS011;19219;44.500;11.188;2024-01-16T13:35:43;104.47;;;54.58;;
32864;SDS011;19219;44.500;11.188;2024-01-16T13:38:12;100.90;;;54.42;;
32864;SDS011;19219;44.500;11.188;2024-01-16T13:40:38;103.63;;;56.47;;
32864;SDS011;19219;44.500;11.188;2024-01-16T13:43:04;103.65;;;55.55;;
32864;SDS011;19219;44.500;11.188;2024-01-16T13:45:33;101.65;;;52.80;;
32864;SDS011;19219;44.500;11.188;2024-01-16T13:48:00;104.72;;;58.15;;
32864;SDS011;19219;44.500;11.188;2024-01-16T13:50:27;95.43;;;53.55;;
32864;SDS011;19219;44.500;11.188;2024-01-16T13:52:53;100.65;;;54.58;;
32864;SDS011;19219;44.500;11.188;2024-01-16T13:55:19;102.07;;;57.20;;
32864;SDS011;19219;44.500;11.188;2024-01-16T13:57:45;111.50;;;58.17;;
32864;SDS011;19219;44.500;11.188;2024-01-16T14:00:11;113.07;;;58.75;;
32864;SDS011;19219;44.500;11.188;2024-01-16T14:02:40;119.25;;;61.53;;
32864;SDS011;19219;44.500;11.188;2024-01-16T14:05:09;116.25;;;61.10;;
32864;SDS011;19219;44.500;11.188;2024-01-16T14:07:36;108.30;;;60.93;;
32864;SDS011;19219;44.500;11.188;2024-01-16T14:10:05;116.00;;;59.72;;
32864;SDS011;19219;44.500;11.188;2024-01-16T14:12:34;113.20;;;60.50;;
32864;SDS011;19219;44.500;11.188;2024-01-16T14:15:00;116.68;;;58.92;;
32864;SDS011;19219;44.500;11.188;2024-01-16T14:17:29;113.82;;;56.95;;
32864;SDS011;19219;44.500;11.188;2024-01-16T14:19:55;100.53;;;57.72;;
32864;SDS011;19219;44.500;11.188;2024-01-16T14:22:21;117.97;;;64.55;;
32864;SDS011;19219;44.500;11.188;2024-01-16T14:24:46;103.97;;;57.05;;
32864;SDS011;19219;44.500;11.188;2024-01-16T14:27:16;112.80;;;59.03;;
32864;SDS011;19219;44.500;11.188;2024-01-16T14:29:41;112.35;;;58.08;;